Time;durP1;ratioP1;P1;durP2;ratioP2;P2;SDS_P1;SDS_P2;PMS_P1;PMS_P2;Temp;Humidity;BMP_temperature;BMP_pressure;BME280_temperature;BME280_humidity;BME280_pressure;Samples;Min_cycle;Max_cycle;Signal;HPM_P1;HPM_P2
2022/01/18 00:00:51;;;;;;;72.68;8.68;;;6.50;99.90;;;;;;5040381;28;20360;-65
2022/01/18 00:03:17;;;;;;;55.17;8.18;;;6.30;99.90;;;;;;5042789;28;20055;-65
2022/01/18 00:05:45;;;;;;;65.78;8.40;;;6.80;99.90;;;;;;5046674;28;20037;-65
2022/01/18 00:08:11;;;;;;;59.92;7.05;;;6.30;99.90;;;;;;5045286;28;20129;-64
2022/01/18 00:10:37;;;;;;;59.65;8.10;;;6.30;99.90;;;;;;5045627;28;20098;-65
2022/01/18 00:15:43;;;;;;;63.38;7.60;;;6.20;99.90;;;;;;5046685;28;20048;-65
2022/01/18 00:18:12;;;;;;;62.65;7.03;;;6.10;99.90;;;;;;5050727;28;20049;-63
2022/01/18 00:23:10;;;;;;;59.22;8.02;;;6.00;99.90;;;;;;5044192;28;20052;-63
2022/01/18 00:25:40;;;;;;;52.70;8.00;;;6.00;99.90;;;;;;5044864;28;20052;-64
2022/01/18 00:28:06;;;;;;;55.58;7.45;;;6.00;99.90;;;;;;5049788;28;20063;-65
2022/01/18 00:33:37;;;;;;;60.92;7.82;;;6.00;99.90;;;;;;5050411;28;20125;-64
2022/01/18 00:36:09;;;;;;;56.90;6.68;;;5.90;99.90;;;;;;5049154;28;20041;-64
2022/01/18 00:38:46;;;;;;;61.25;8.50;;;5.90;99.90;;;;;;5048021;28;20052;-64
2022/01/18 00:41:12;;;;;;;61.17;8.07;;;6.40;99.90;;;;;;5045298;28;20471;-64
2022/01/18 00:43:39;;;;;;;61.63;8.57;;;6.00;99.90;;;;;;5048800;28;20407;-64
2022/01/18 00:46:05;;;;;;;70.70;7.03;;;5.80;99.90;;;;;;5048461;28;20569;-64
2022/01/18 00:48:35;;;;;;;58.60;8.52;;;5.80;99.90;;;;;;5050990;28;20068;-64
2022/01/18 00:51:03;;;;;;;71.13;8.07;;;5.80;99.90;;;;;;5047977;28;20102;-65
2022/01/18 00:53:31;;;;;;;51.15;7.63;;;5.80;99.90;;;;;;5047999;28;20071;-64
2022/01/18 00:56:17;;;;;;;60.88;7.80;;;5.80;99.90;;;;;;5048336;28;20509;-64
2022/01/18 00:58:45;;;;;;;66.22;8.82;;;5.80;99.90;;;;;;5042756;28;20411;-64
2022/01/18 01:01:11;;;;;;;67.90;7.97;;;5.80;99.90;;;;;;5048908;28;20076;-65
2022/01/18 01:03:37;;;;;;;81.55;8.98;;;5.80;99.90;;;;;;5048861;28;20045;-64
2022/01/18 01:06:05;;;;;;;59.13;8.18;;;5.80;99.90;;;;;;5050047;28;20045;-64
2022/01/18 01:08:31;;;;;;;76.97;8.60;;;5.80;99.90;;;;;;5046509;28;20072;-64
2022/01/18 01:10:57;;;;;;;81.78;8.20;;;5.80;99.90;;;;;;5048572;28;20091;-64
2022/01/18 01:13:24;;;;;;;76.47;8.88;;;5.80;99.90;;;;;;5047247;28;20652;-64
2022/01/18 01:19:05;;;;;;;75.15;9.48;;;5.80;99.90;;;;;;5049278;28;20051;-65
2022/01/18 01:35:06;;;;;;;59.25;7.13;;;5.80;99.90;;;;;;5046594;28;20384;-65
2022/01/18 01:46:02;;;;;;;59.58;6.70;;;5.60;99.90;;;;;;5006241;28;20396;-64
2022/01/18 01:48:27;;;;;;;;;;;5.70;99.90;;;;;;5002618;28;20107;-65
2022/01/18 01:51:01;;;;;;;64.72;6.57;;;5.70;99.90;;;;;;5026704;28;19927;-65
2022/01/18 01:53:27;;;;;;;48.20;6.78;;;5.80;99.90;;;;;;5041427;28;20049;-64
2022/01/18 01:55:52;;;;;;;48.65;6.47;;;5.80;99.90;;;;;;5046699;28;20052;-64
2022/01/18 01:58:24;;;;;;;52.72;6.57;;;5.80;99.90;;;;;;5046807;28;20589;-65
2022/01/18 02:00:58;;;;;;;46.65;7.32;;;5.80;99.90;;;;;;5045601;28;20127;-66
2022/01/18 02:03:25;;;;;;;49.90;6.43;;;5.80;99.90;;;;;;5044986;28;20045;-64
2022/01/18 02:05:51;;;;;;;47.72;6.70;;;5.80;99.90;;;;;;5046383;28;20040;-65
2022/01/18 02:08:16;;;;;;;55.97;7.43;;;5.80;99.90;;;;;;5047352;28;20060;-65
2022/01/18 02:10:43;;;;;;;41.60;5.72;;;5.90;99.90;;;;;;5049442;28;20033;-65
2022/01/18 02:13:13;;;;;;;56.40;6.97;;;6.00;99.90;;;;;;5047477;28;20069;-64
2022/01/18 02:15:47;;;;;;;58.90;7.47;;;6.00;99.90;;;;;;5048140;28;20495;-65
2022/01/18 02:23:41;;;;;;;50.30;5.75;;;6.00;99.90;;;;;;5046730;28;20069;-65
2022/01/18 02:26:07;;;;;;;46.90;6.10;;;6.00;99.90;;;;;;5041743;28;20122;-65
2022/01/18 02:28:33;;;;;;;50.92;6.88;;;6.00;99.90;;;;;;5048436;28;20045;-65
2022/01/18 02:30:59;;;;;;;48.50;5.65;;;6.00;99.90;;;;;;5046684;28;20075;-65
2022/01/18 02:33:24;;;;;;;48.72;5.80;;;6.00;99.90;;;;;;5046087;28;20045;-65
2022/01/18 02:35:50;;;;;;;39.75;5.45;;;6.00;99.90;;;;;;5050941;28;20052;-65
2022/01/18 02:38:16;;;;;;;51.38;6.60;;;6.30;99.90;;;;;;5052763;28;20128;-65
2022/01/18 02:40:42;;;;;;;46.33;5.88;;;6.00;99.90;;;;;;5049671;28;20037;-65
2022/01/18 02:45:56;;;;;;;44.47;5.20;;;6.10;99.90;;;;;;5050905;28;20088;-66
2022/01/18 02:48:22;;;;;;;38.83;5.00;;;6.10;99.90;;;;;;5053555;28;20041;-66
2022/01/18 02:50:49;;;;;;;52.35;5.45;;;6.20;99.90;;;;;;5050706;28;20044;-65
2022/01/18 02:53:16;;;;;;;35.30;6.30;;;6.20;99.90;;;;;;5049380;28;20135;-66
2022/01/18 02:55:43;;;;;;;36.10;5.25;;;6.20;99.90;;;;;;5049099;28;20044;-65
2022/01/18 02:58:10;;;;;;;49.83;5.78;;;6.20;99.90;;;;;;5046852;28;20116;-64
2022/01/18 03:03:11;;;;;;;38.55;5.40;;;6.20;99.90;;;;;;5048893;28;20414;-64
2022/01/18 03:03:31;;;;;;;47.33;4.95;;;6.20;99.90;;;;;;5049053;28;20052;-64
2022/01/18 03:05:57;;;;;;;36.03;5.70;;;6.20;99.90;;;;;;5050240;28;20033;-64
2022/01/18 03:08:24;;;;;;;29.35;4.38;;;6.30;99.90;;;;;;5051218;28;20113;-65
2022/01/18 03:10:50;;;;;;;31.92;4.30;;;6.30;99.90;;;;;;5050843;28;20123;-63
2022/01/18 03:13:18;;;;;;;38.28;4.70;;;6.30;99.90;;;;;;5050972;28;20403;-64
2022/01/18 03:15:44;;;;;;;;;;;6.30;99.90;;;;;;5051758;28;20558;-64
2022/01/18 03:18:10;;;;;;;31.67;4.72;;;6.20;99.90;;;;;;5051784;28;20078;-64
2022/01/18 03:20:39;;;;;;;27.23;3.88;;;6.30;99.90;;;;;;5051679;28;20078;-65
2022/01/18 03:23:11;;;;;;;26.40;4.22;;;6.30;99.90;;;;;;5044392;28;20470;-64
2022/01/18 03:25:52;;;;;;;36.00;4.55;;;6.30;99.90;;;;;;5050862;28;20041;-65
2022/01/18 03:28:18;;;;;;;35.25;3.95;;;6.30;99.90;;;;;;5043324;28;20178;-64
2022/01/18 03:30:49;;;;;;;24.92;3.72;;;6.30;99.90;;;;;;5050402;28;20565;-64
2022/01/18 03:33:18;;;;;;;27.83;4.55;;;6.30;99.90;;;;;;5048015;28;20060;-65
2022/01/18 03:35:44;;;;;;;28.27;4.32;;;6.30;99.90;;;;;;5045635;28;20087;-64
2022/01/18 03:38:11;;;;;;;25.20;3.80;;;6.30;99.90;;;;;;5043716;28;20073;-65
2022/01/18 03:40:37;;;;;;;25.90;4.05;;;6.30;99.90;;;;;;5046434;28;20037;-68
2022/01/18 03:43:06;;;;;;;25.33;3.50;;;6.30;99.90;;;;;;5046068;28;20399;-67
2022/01/18 03:45:33;;;;;;;;;;;6.30;99.90;;;;;;5048138;28;20469;-65
2022/01/18 03:48:03;;;;;;;28.05;3.92;;;6.30;99.90;;;;;;5043664;28;19929;-64
2022/01/18 03:50:29;;;;;;;24.52;3.30;;;6.30;99.90;;;;;;5044527;28;20037;-65
2022/01/18 03:52:55;;;;;;;27.10;3.65;;;6.30;99.90;;;;;;5047697;28;20463;-65
2022/01/18 03:55:22;;;;;;;28.98;4.45;;;6.20;99.90;;;;;;5048801;28;20083;-66
2022/01/18 03:57:48;;;;;;;35.35;4.43;;;6.20;99.90;;;;;;5047789;28;20044;-65
2022/01/18 04:00:17;;;;;;;27.00;3.35;;;6.20;99.90;;;;;;5046951;28;20048;-65
2022/01/18 04:02:43;;;;;;;28.38;4.10;;;6.20;99.90;;;;;;5048634;28;20483;-66
2022/01/18 04:05:09;;;;;;;28.63;3.85;;;6.30;99.90;;;;;;5048244;28;20041;-65
2022/01/18 04:07:35;;;;;;;18.20;3.20;;;6.20;99.90;;;;;;5047080;28;20043;-65
2022/01/18 04:10:01;;;;;;;24.33;3.30;;;6.20;99.90;;;;;;5050020;28;20116;-65
2022/01/18 04:12:27;;;;;;;30.02;3.28;;;6.20;99.90;;;;;;5055702;28;20043;-65
2022/01/18 04:14:54;;;;;;;26.45;3.67;;;6.40;99.90;;;;;;5053946;28;20526;-65
2022/01/18 04:27:48;;;;;;;23.33;3.08;;;6.20;99.90;;;;;;5046937;28;20049;-64
2022/01/18 04:30:13;;;;;;;22.77;2.50;;;6.30;99.90;;;;;;5047529;28;20053;-65
2022/01/18 04:32:39;;;;;;;26.73;2.90;;;6.20;99.90;;;;;;5048930;28;20179;-64
2022/01/18 04:35:05;;;;;;;22.17;2.97;;;6.20;99.90;;;;;;5048169;28;20059;-66
2022/01/18 04:37:31;;;;;;;15.98;2.63;;;6.20;99.90;;;;;;5045565;28;20033;-64
2022/01/18 04:39:58;;;;;;;22.42;2.88;;;6.20;99.90;;;;;;5045557;28;20044;-66
2022/01/18 04:43:02;;;;;;;20.08;2.83;;;7.50;99.90;;;;;;5043668;28;20045;-65
2022/01/18 04:50:38;;;;;;;23.35;3.50;;;6.30;99.90;;;;;;5044177;28;20455;-65
2022/01/18 04:53:03;;;;;;;21.95;2.70;;;6.30;99.90;;;;;;5044990;28;20060;-66
2022/01/18 04:55:32;;;;;;;15.35;2.38;;;6.30;99.90;;;;;;5043983;28;20123;-64
2022/01/18 04:57:58;;;;;;;13.63;2.17;;;6.30;99.90;;;;;;5042994;28;20053;-65
2022/01/18 05:00:25;;;;;;;16.67;2.38;;;6.30;99.90;;;;;;5045063;28;20102;-64
2022/01/18 05:02:52;;;;;;;17.93;2.63;;;6.30;99.90;;;;;;5046494;28;20047;-64
2022/01/18 05:05:24;;;;;;;13.82;2.20;;;6.40;99.90;;;;;;5046486;28;20387;-65
2022/01/18 05:07:52;;;;;;;17.25;2.50;;;6.40;99.90;;;;;;5041693;28;20060;-64
2022/01/18 05:10:20;;;;;;;10.70;2.10;;;6.40;99.90;;;;;;5049101;28;20477;-65
2022/01/18 05:12:49;;;;;;;19.60;2.60;;;6.40;99.90;;;;;;5050957;28;20509;-65
2022/01/18 05:23:20;;;;;;;19.38;2.50;;;6.40;99.90;;;;;;5074838;28;20044;-64
2022/01/18 05:25:46;;;;;;;20.95;2.88;;;6.40;99.90;;;;;;5066413;28;20091;-65
2022/01/18 05:28:13;;;;;;;21.90;2.70;;;6.40;99.90;;;;;;5079007;28;20036;-64
2022/01/18 05:30:40;;;;;;;17.50;2.70;;;6.40;99.90;;;;;;5069854;28;20119;-66
2022/01/18 05:33:06;;;;;;;15.70;2.15;;;6.40;99.90;;;;;;5070283;28;20044;-65
2022/01/18 05:35:33;;;;;;;14.90;2.65;;;6.40;99.90;;;;;;5045495;28;20163;-65
2022/01/18 05:37:58;;;;;;;17.05;3.25;;;6.40;99.90;;;;;;5070895;28;20123;-67
2022/01/18 05:40:24;;;;;;;13.23;2.30;;;6.40;99.90;;;;;;5102264;28;20466;-65
2022/01/18 05:42:50;;;;;;;15.63;2.72;;;6.30;99.90;;;;;;5069647;28;20048;-65
2022/01/18 05:45:17;;;;;;;21.30;2.65;;;6.30;99.90;;;;;;5068023;28;20036;-65
2022/01/18 05:47:43;;;;;;;22.95;2.88;;;6.30;99.90;;;;;;5073305;28;20387;-67
2022/01/18 05:50:10;;;;;;;20.35;3.05;;;6.30;99.90;;;;;;5067336;28;20033;-65
2022/01/18 05:52:36;;;;;;;14.85;2.63;;;6.30;99.90;;;;;;5071809;28;20045;-65
2022/01/18 05:55:03;;;;;;;16.13;3.03;;;6.30;99.90;;;;;;5068379;28;20040;-65
2022/01/18 05:57:29;;;;;;;14.45;2.60;;;6.30;99.90;;;;;;5062555;28;20037;-65
2022/01/18 06:00:01;;;;;;;16.48;2.80;;;6.30;99.90;;;;;;5066775;28;20082;-65
2022/01/18 06:03:03;;;;;;;15.10;2.40;;;6.30;99.90;;;;;;5060088;28;20045;-66
2022/01/18 06:08:03;;;;;;;17.17;2.65;;;6.30;99.90;;;;;;5062816;28;20056;-64
2022/01/18 06:10:29;;;;;;;19.38;2.80;;;6.30;99.90;;;;;;5100270;28;20041;-62
2022/01/18 06:12:55;;;;;;;16.38;2.30;;;6.30;99.90;;;;;;5064314;28;20044;-66
2022/01/18 06:15:21;;;;;;;24.13;3.20;;;6.30;99.90;;;;;;5059270;28;20441;-65
2022/01/18 06:17:46;;;;;;;12.15;2.25;;;6.30;99.90;;;;;;5068605;28;20117;-65
2022/01/18 06:20:12;;;;;;;14.35;2.40;;;6.30;99.90;;;;;;5069361;28;20505;-65
2022/01/18 06:22:38;;;;;;;16.10;2.92;;;6.30;99.90;;;;;;5061509;28;20413;-66
2022/01/18 06:25:05;;;;;;;15.88;2.67;;;6.30;99.90;;;;;;5064307;28;20041;-67
2022/01/18 06:27:31;;;;;;;12.57;2.50;;;6.30;99.90;;;;;;5065374;28;20405;-65
2022/01/18 06:29:57;;;;;;;19.60;2.63;;;6.40;99.90;;;;;;5064566;28;20127;-66
2022/01/18 06:32:24;;;;;;;20.80;3.25;;;6.40;99.90;;;;;;5053286;28;20048;-64
2022/01/18 06:34:50;;;;;;;15.30;3.63;;;6.40;99.90;;;;;;5051717;28;20072;-63
2022/01/18 06:37:16;;;;;;;18.52;3.10;;;6.40;99.90;;;;;;5052198;28;20084;-64
2022/01/18 06:39:42;;;;;;;10.95;3.05;;;6.40;99.90;;;;;;5053503;28;20072;-65
2022/01/18 06:42:10;;;;;;;14.10;2.70;;;6.40;99.90;;;;;;5085039;28;20039;-64
2022/01/18 06:44:36;;;;;;;;;;;6.40;99.90;;;;;;5045326;28;20049;-66
2022/01/18 06:47:02;;;;;;;16.38;3.15;;;6.40;99.90;;;;;;5050406;28;19920;-64
2022/01/18 06:49:27;;;;;;;21.02;3.13;;;6.40;99.90;;;;;;5049429;28;20135;-64
2022/01/18 06:51:53;;;;;;;12.90;3.38;;;6.40;99.90;;;;;;5047398;28;20040;-65
2022/01/18 06:54:18;;;;;;;15.50;3.15;;;6.40;99.90;;;;;;5048577;28;20406;-63
2022/01/18 06:56:48;;;;;;;14.90;3.08;;;6.40;99.90;;;;;;5050674;28;20052;-66
2022/01/18 06:59:14;;;;;;;24.50;3.60;;;6.40;99.90;;;;;;5044111;28;20037;-65
2022/01/18 07:01:40;;;;;;;16.65;3.22;;;6.40;99.90;;;;;;5045634;28;20131;-66
2022/01/18 07:04:06;;;;;;;14.30;3.13;;;6.40;99.90;;;;;;5060344;28;20049;-64
2022/01/18 07:06:33;;;;;;;26.85;4.60;;;6.40;99.90;;;;;;5050967;28;20041;-65
2022/01/18 07:09:00;;;;;;;13.95;3.40;;;6.40;99.90;;;;;;5056651;28;20101;-65
2022/01/18 07:11:26;;;;;;;20.17;4.13;;;6.30;99.90;;;;;;5047723;28;20406;-64
2022/01/18 07:13:51;;;;;;;17.90;3.45;;;6.40;99.90;;;;;;5050077;28;20095;-65
2022/01/18 07:16:17;;;;;;;20.33;4.10;;;6.40;99.90;;;;;;5056990;28;20400;-65
2022/01/18 07:18:44;;;;;;;26.83;3.90;;;6.40;99.90;;;;;;5066208;28;20058;-65
2022/01/18 07:21:10;;;;;;;21.60;4.20;;;6.40;99.90;;;;;;5052826;28;20063;-65
2022/01/18 07:23:37;;;;;;;17.90;4.53;;;6.40;99.90;;;;;;5037072;28;20383;-65
2022/01/18 07:26:02;;;;;;;26.25;4.85;;;6.40;99.90;;;;;;5048407;28;20043;-66
2022/01/18 07:28:28;;;;;;;26.45;4.30;;;6.40;99.90;;;;;;5043312;28;20052;-65
2022/01/18 07:30:54;;;;;;;25.58;4.40;;;6.30;99.90;;;;;;5052578;28;20080;-65
2022/01/18 07:33:20;;;;;;;23.27;4.40;;;6.40;99.90;;;;;;5050361;28;20045;-65
2022/01/18 07:35:47;;;;;;;21.60;4.70;;;6.30;99.90;;;;;;5056440;28;20045;-65
2022/01/18 07:38:15;;;;;;;20.95;4.35;;;6.30;99.90;;;;;;5050244;28;20368;-67
2022/01/18 07:40:42;;;;;;;24.90;4.72;;;6.30;99.90;;;;;;5035767;28;20041;-66
2022/01/18 07:43:10;;;;;;;19.13;3.92;;;6.30;99.90;;;;;;5067627;28;20052;-66
2022/01/18 07:45:36;;;;;;;18.58;4.60;;;6.20;99.90;;;;;;5053107;28;20045;-66
2022/01/18 07:48:02;;;;;;;20.10;4.55;;;6.20;99.90;;;;;;5053347;28;20041;-66
2022/01/18 07:50:28;;;;;;;24.23;4.65;;;6.20;99.90;;;;;;5052550;28;20048;-66
2022/01/18 07:52:53;;;;;;;22.98;4.72;;;6.20;99.90;;;;;;5052875;28;20168;-65
2022/01/18 07:55:19;;;;;;;24.63;4.68;;;6.20;99.90;;;;;;5044890;28;20048;-64
2022/01/18 07:57:45;;;;;;;23.42;4.60;;;6.10;99.90;;;;;;5060729;28;20096;-63
2022/01/18 08:00:13;;;;;;;34.22;5.47;;;6.10;99.90;;;;;;5053047;28;20448;-64
2022/01/18 08:02:39;;;;;;;23.02;4.90;;;6.10;99.90;;;;;;5058058;28;20135;-68
2022/01/18 08:05:07;;;;;;;23.73;4.28;;;6.00;99.90;;;;;;5058338;28;20033;-65
2022/01/18 08:07:33;;;;;;;22.95;4.70;;;6.00;99.90;;;;;;5051905;28;20478;-66
2022/01/18 08:09:59;;;;;;;24.25;5.10;;;5.90;99.90;;;;;;5052065;28;20045;-64
2022/01/18 08:12:25;;;;;;;17.45;4.40;;;5.90;99.90;;;;;;5051756;28;20043;-67
2022/01/18 08:14:54;;;;;;;19.98;4.70;;;6.10;99.90;;;;;;5074742;28;20042;-64
2022/01/18 08:17:20;;;;;;;19.67;4.60;;;5.80;99.90;;;;;;5056039;28;20045;-65
2022/01/18 08:19:45;;;;;;;16.67;4.70;;;5.80;99.90;;;;;;5032661;28;20521;-64
2022/01/18 08:22:11;;;;;;;28.27;5.30;;;5.80;99.90;;;;;;5049576;28;20033;-65
2022/01/18 08:24:38;;;;;;;26.60;5.05;;;5.90;99.90;;;;;;5047435;28;20044;-63
2022/01/18 08:27:04;;;;;;;18.17;4.45;;;5.90;99.90;;;;;;5038938;28;20045;-63
2022/01/18 08:29:30;;;;;;;20.45;5.32;;;5.90;99.90;;;;;;5057954;28;20037;-64
2022/01/18 08:31:56;;;;;;;20.45;4.28;;;5.90;99.90;;;;;;5039671;28;20048;-63
2022/01/18 08:34:22;;;;;;;23.92;5.32;;;6.00;99.90;;;;;;5058982;28;20392;-63
2022/01/18 08:36:47;;;;;;;22.38;4.90;;;6.00;99.90;;;;;;5057844;28;20055;-64
2022/01/18 08:39:13;;;;;;;27.65;5.03;;;6.00;99.90;;;;;;5057797;28;20037;-63
2022/01/18 08:41:39;;;;;;;22.23;4.82;;;6.00;99.90;;;;;;5050056;28;20511;-64
2022/01/18 08:44:06;;;;;;;19.65;4.82;;;6.10;99.90;;;;;;5050919;28;20061;-65
2022/01/18 08:46:31;;;;;;;25.95;4.50;;;6.10;99.90;;;;;;5047360;28;20041;-65
2022/01/18 08:48:57;;;;;;;19.52;4.53;;;6.10;99.90;;;;;;5053430;28;20037;-65
2022/01/18 08:51:23;;;;;;;25.23;5.13;;;6.20;99.90;;;;;;5054932;28;20497;-65
2022/01/18 08:53:50;;;;;;;24.10;4.88;;;6.20;99.90;;;;;;5053718;28;20037;-65
2022/01/18 08:56:21;;;;;;;13.52;4.53;;;6.20;99.90;;;;;;5055024;28;20072;-65
2022/01/18 08:58:47;;;;;;;24.17;4.63;;;6.30;99.90;;;;;;5044153;28;21600;-65
2022/01/18 09:01:14;;;;;;;19.40;4.72;;;6.30;99.90;;;;;;5050893;28;20041;-67
2022/01/18 09:03:40;;;;;;;16.60;4.15;;;6.30;99.90;;;;;;5038807;28;20360;-66
2022/01/18 09:06:07;;;;;;;17.55;3.97;;;6.30;99.90;;;;;;5049179;28;20045;-65
2022/01/18 09:08:36;;;;;;;14.27;4.57;;;6.40;99.90;;;;;;5037004;28;20047;-67
2022/01/18 09:11:03;;;;;;;17.90;3.88;;;6.40;99.90;;;;;;5048206;28;20128;-65
2022/01/18 09:13:29;;;;;;;15.82;4.10;;;6.60;99.90;;;;;;5049217;28;20037;-65
2022/01/18 09:15:55;;;;;;;19.85;4.53;;;6.50;99.90;;;;;;5057338;28;20049;-65
2022/01/18 09:18:20;;;;;;;23.17;4.65;;;6.50;99.90;;;;;;5051648;28;20049;-64
2022/01/18 09:20:46;;;;;;;16.95;4.10;;;6.60;99.90;;;;;;5049791;28;20426;-65
2022/01/18 09:23:13;;;;;;;17.42;3.95;;;6.60;99.90;;;;;;5059408;28;20037;-64
2022/01/18 09:25:40;;;;;;;21.73;5.25;;;6.60;99.90;;;;;;5055013;28;20413;-64
2022/01/18 09:28:06;;;;;;;21.27;3.83;;;6.60;99.90;;;;;;5066960;28;20037;-67
2022/01/18 09:30:34;;;;;;;16.08;3.75;;;6.70;99.90;;;;;;5052841;28;20056;-65
2022/01/18 09:33:01;;;;;;;22.63;4.15;;;6.70;99.90;;;;;;5050353;28;20397;-65
2022/01/18 09:35:27;;;;;;;18.27;3.80;;;6.70;99.90;;;;;;5050453;28;20037;-65
2022/01/18 09:37:53;;;;;;;20.50;4.03;;;6.80;99.90;;;;;;5057282;28;20110;-65
2022/01/18 09:40:20;;;;;;;19.95;3.88;;;6.80;99.90;;;;;;5032744;28;20045;-66
2022/01/18 09:42:55;;;;;;;14.43;3.50;;;6.90;99.90;;;;;;5054303;28;20523;-66
2022/01/18 09:45:23;;;;;;;18.90;3.95;;;6.90;99.90;;;;;;5053366;28;20041;-66
2022/01/18 09:47:51;;;;;;;14.97;3.33;;;6.90;99.90;;;;;;5049571;28;20546;-65
2022/01/18 09:50:31;;;;;;;22.75;4.05;;;7.00;99.90;;;;;;5051772;28;20302;-66
2022/01/18 09:52:58;;;;;;;16.10;4.05;;;7.00;99.90;;;;;;5054511;28;20041;-64
2022/01/18 09:55:27;;;;;;;20.25;4.03;;;7.00;99.90;;;;;;5053944;28;20454;-63
2022/01/18 09:57:53;;;;;;;15.25;3.90;;;7.00;99.90;;;;;;5052889;28;20067;-64
2022/01/18 10:00:20;;;;;;;17.63;4.60;;;7.10;99.90;;;;;;5085614;28;20049;-64
2022/01/18 10:02:47;;;;;;;19.55;5.20;;;7.10;99.90;;;;;;5052899;28;20102;-66
2022/01/18 10:05:21;;;;;;;21.48;5.10;;;7.30;99.90;;;;;;5052411;28;20448;-65
2022/01/18 10:08:10;;;;;;;17.08;4.75;;;7.20;99.90;;;;;;5086718;28;20049;-68
2022/01/18 10:10:35;;;;;;;16.40;4.32;;;7.20;99.90;;;;;;5058519;28;20147;-64
2022/01/18 10:13:01;;;;;;;21.40;5.10;;;7.30;99.90;;;;;;5056920;28;20132;-65
2022/01/18 10:15:26;;;;;;;20.42;5.13;;;7.30;99.90;;;;;;5053835;28;20086;-67
2022/01/18 10:18:03;;;;;;;17.48;4.85;;;7.30;99.90;;;;;;5056045;28;20040;-65
2022/01/18 10:20:32;;;;;;;17.05;5.68;;;7.50;99.90;;;;;;5056890;28;20061;-64
2022/01/18 10:23:00;;;;;;;18.33;4.90;;;7.40;99.90;;;;;;5057318;28;20052;-65
2022/01/18 10:25:29;;;;;;;20.13;4.97;;;7.50;99.90;;;;;;5057394;28;20040;-64
2022/01/18 10:27:55;;;;;;;13.15;4.55;;;7.50;99.90;;;;;;5054902;28;20299;-68
2022/01/18 10:30:34;;;;;;;15.85;3.88;;;7.60;99.90;;;;;;5055210;28;20063;-64
2022/01/18 10:33:17;;;;;;;17.35;4.50;;;7.60;99.90;;;;;;5056172;28;20033;-64
2022/01/18 10:36:11;;;;;;;15.93;3.85;;;7.60;99.90;;;;;;5056141;28;20050;-66
2022/01/18 10:38:40;;;;;;;17.00;4.18;;;7.70;99.90;;;;;;5054448;28;20053;-66
2022/01/18 10:41:28;;;;;;;17.00;4.13;;;7.70;99.90;;;;;;5052573;28;20071;-64
2022/01/18 10:44:16;;;;;;;12.40;4.03;;;7.80;99.90;;;;;;5053484;28;20136;-65
2022/01/18 10:46:55;;;;;;;15.75;4.72;;;7.80;99.90;;;;;;5058133;28;20040;-64
2022/01/18 10:49:32;;;;;;;18.48;4.30;;;7.90;99.90;;;;;;5053152;28;20745;-65
2022/01/18 10:52:00;;;;;;;20.38;4.28;;;7.90;99.90;;;;;;5071254;28;20423;-64
2022/01/18 10:54:41;;;;;;;19.02;4.00;;;7.80;99.90;;;;;;5052036;28;20047;-68
2022/01/18 10:57:08;;;;;;;15.52;4.20;;;7.80;99.90;;;;;;5055130;28;20060;-65
2022/01/18 10:59:37;;;;;;;20.77;4.45;;;7.80;99.90;;;;;;5055820;28;20048;-65
2022/01/18 11:02:14;;;;;;;13.00;3.92;;;7.80;99.90;;;;;;5056510;28;20399;-65
2022/01/18 11:04:46;;;;;;;16.33;4.35;;;7.70;99.90;;;;;;5053420;28;20048;-63
2022/01/18 11:07:13;;;;;;;22.10;4.50;;;7.70;99.90;;;;;;5056259;28;20061;-67
2022/01/18 11:09:39;;;;;;;13.67;4.10;;;7.60;99.90;;;;;;5056985;28;20583;-65
2022/01/18 11:12:06;;;;;;;15.88;4.35;;;7.60;99.90;;;;;;5054452;28;20063;-65
2022/01/18 11:14:33;;;;;;;17.88;4.45;;;7.60;99.90;;;;;;5055794;28;20041;-64
2022/01/18 11:16:59;;;;;;;18.05;4.72;;;7.60;99.90;;;;;;5054584;28;20033;-66
2022/01/18 11:21:54;;;;;;;20.38;4.18;;;7.60;99.90;;;;;;5056574;28;20052;-66
2022/01/18 11:24:21;;;;;;;13.85;3.88;;;7.60;99.90;;;;;;5088028;28;20045;-67
2022/01/18 11:26:48;;;;;;;15.07;3.63;;;7.50;99.90;;;;;;5052868;28;20036;-65
2022/01/18 11:29:17;;;;;;;18.98;4.22;;;7.60;99.90;;;;;;5054968;28;20037;-65
2022/01/18 11:31:51;;;;;;;13.52;3.75;;;7.60;99.90;;;;;;5087082;28;20040;-64
2022/01/18 11:34:29;;;;;;;13.75;3.78;;;7.70;99.90;;;;;;5054271;28;20041;-68
2022/01/18 11:37:06;;;;;;;15.02;3.65;;;7.70;99.90;;;;;;5086144;28;20135;-64
2022/01/18 11:39:32;;;;;;;19.35;4.13;;;7.70;99.90;;;;;;5053358;28;20447;-66
2022/01/18 11:42:06;;;;;;;18.85;4.20;;;7.70;99.90;;;;;;5054794;28;20040;-65
2022/01/18 11:44:32;;;;;;;15.45;3.65;;;7.80;99.90;;;;;;5052349;28;20041;-66
2022/01/18 11:46:58;;;;;;;12.30;3.60;;;7.60;99.90;;;;;;5050089;28;20103;-67
2022/01/18 11:49:28;;;;;;;15.05;4.07;;;7.60;99.90;;;;;;5048569;28;20347;-67
2022/01/18 11:52:03;;;;;;;15.95;3.90;;;7.60;99.90;;;;;;5054567;28;20112;-65
2022/01/18 11:54:38;;;;;;;13.43;3.38;;;7.70;99.90;;;;;;5052476;28;20053;-65
2022/01/18 11:57:24;;;;;;;12.88;2.95;;;7.70;99.90;;;;;;5051849;28;20072;-64
2022/01/18 11:59:52;;;;;;;18.98;3.80;;;7.70;99.90;;;;;;5078364;28;20044;-64
2022/01/18 12:02:46;;;;;;;;;;;7.70;99.90;;;;;;5044592;28;20061;-66
2022/01/18 12:05:21;;;;;;;12.35;3.40;;;7.70;99.90;;;;;;5068685;28;19927;-65
2022/01/18 12:07:54;;;;;;;14.82;3.55;;;7.80;99.90;;;;;;5043234;28;20042;-64
2022/01/18 12:10:19;;;;;;;16.05;3.67;;;7.60;99.90;;;;;;5047822;28;20425;-65
2022/01/18 12:12:46;;;;;;;15.35;3.47;;;7.60;99.90;;;;;;5051311;28;20043;-66
2022/01/18 12:15:15;;;;;;;13.80;3.53;;;7.90;99.90;;;;;;5027733;28;20049;-65
2022/01/18 12:17:52;;;;;;;12.02;4.05;;;7.60;99.90;;;;;;5050548;28;20525;-68
2022/01/18 12:20:45;;;;;;;13.43;3.72;;;7.60;99.90;;;;;;5069777;28;20093;-64
2022/01/18 12:23:17;;;;;;;18.83;3.90;;;7.60;99.90;;;;;;5049951;28;20084;-66
2022/01/18 12:28:50;;;;;;;13.77;3.55;;;7.50;99.90;;;;;;5057829;28;20055;-65
2022/01/18 12:34:30;;;;;;;18.73;3.85;;;7.50;99.90;;;;;;5047605;28;20079;-65
2022/01/18 12:37:05;;;;;;;12.60;3.95;;;7.40;99.90;;;;;;5046523;28;20045;-64
2022/01/18 12:39:51;;;;;;;14.20;4.75;;;7.40;99.90;;;;;;5059665;28;20383;-64
2022/01/18 12:45:09;;;;;;;18.63;5.95;;;7.50;99.90;;;;;;5037215;28;20053;-64
2022/01/18 12:47:36;;;;;;;15.10;4.72;;;7.50;99.90;;;;;;5049307;28;20379;-64
2022/01/18 12:50:07;;;;;;;17.38;5.05;;;7.60;99.90;;;;;;5052088;28;20041;-64
2022/01/18 12:52:54;;;;;;;11.88;5.30;;;7.50;99.90;;;;;;5044418;28;20445;-64
2022/01/18 12:55:55;;;;;;;21.48;5.43;;;7.40;99.90;;;;;;5048892;28;20585;-65
2022/01/18 12:58:35;;;;;;;17.90;6.32;;;7.40;99.90;;;;;;5041873;28;20036;-65
2022/01/18 13:01:24;;;;;;;21.67;6.22;;;7.40;99.90;;;;;;5051983;28;20045;-67
2022/01/18 13:03:52;;;;;;;14.15;5.75;;;7.40;99.90;;;;;;5053551;28;20033;-64
2022/01/18 13:06:23;;;;;;;15.98;5.60;;;7.40;99.90;;;;;;5041334;28;20077;-64
2022/01/18 13:09:00;;;;;;;28.27;6.28;;;7.60;99.90;;;;;;5048465;28;20391;-65
2022/01/18 13:11:31;;;;;;;17.05;5.32;;;7.40;99.90;;;;;;5053017;28;20093;-66
2022/01/18 13:14:08;;;;;;;18.58;5.93;;;7.40;99.90;;;;;;5045259;28;20132;-65
2022/01/18 13:25:29;;;;;;;22.38;6.28;;;7.50;99.90;;;;;;5042358;28;20482;-65
2022/01/18 13:27:51;;;;;;;21.70;6.32;;;7.50;99.90;;;;;;5047553;28;20051;-63
2022/01/18 13:30:20;;;;;;;22.65;6.35;;;7.60;99.90;;;;;;5054021;28;20466;-63
2022/01/18 13:32:47;;;;;;;19.05;6.03;;;7.60;99.90;;;;;;5061458;28;20057;-65
2022/01/18 13:35:16;;;;;;;19.02;6.00;;;7.60;99.90;;;;;;5051327;28;20430;-66
2022/01/18 13:37:41;;;;;;;19.58;6.47;;;7.60;99.90;;;;;;5057591;28;20552;-65
2022/01/18 13:40:12;;;;;;;25.33;6.68;;;7.50;99.90;;;;;;5053231;28;20037;-64
2022/01/18 13:43:01;;;;;;;18.85;6.07;;;7.50;99.90;;;;;;5066893;28;20063;-65
2022/01/18 13:45:28;;;;;;;23.33;5.95;;;7.50;99.90;;;;;;5040571;28;20082;-65
2022/01/18 13:48:08;;;;;;;22.13;7.00;;;7.60;99.90;;;;;;5069500;28;20033;-64
2022/01/18 13:50:53;;;;;;;22.17;6.43;;;7.50;99.90;;;;;;5041217;28;20055;-68
2022/01/18 13:53:28;;;;;;;19.02;6.60;;;7.50;99.90;;;;;;5057374;28;20040;-64
2022/01/18 13:56:00;;;;;;;22.85;6.43;;;7.50;99.90;;;;;;5049755;28;20118;-65
2022/01/18 13:58:36;;;;;;;24.35;6.90;;;7.40;99.90;;;;;;5048940;28;20041;-65
2022/01/18 14:01:07;;;;;;;22.25;5.97;;;7.40;99.90;;;;;;5042343;28;20048;-65
2022/01/18 14:03:36;;;;;;;21.42;6.47;;;7.30;99.90;;;;;;5053347;28;20103;-66
2022/01/18 14:06:02;;;;;;;22.00;6.53;;;7.30;99.90;;;;;;5063363;28;20040;-64
2022/01/18 14:08:37;;;;;;;21.95;6.18;;;7.30;99.90;;;;;;5053244;28;20045;-65
2022/01/18 14:11:11;;;;;;;19.30;7.35;;;7.30;99.90;;;;;;5058893;28;20037;-65
2022/01/18 14:13:38;;;;;;;17.17;6.60;;;7.30;99.90;;;;;;5049138;28;20134;-64
2022/01/18 14:16:29;;;;;;;20.17;7.47;;;7.30;99.90;;;;;;5057897;28;20055;-65
2022/01/18 14:18:55;;;;;;;28.15;7.75;;;7.30;99.90;;;;;;5057274;28;20561;-65
2022/01/18 14:21:24;;;;;;;21.58;6.88;;;7.30;99.90;;;;;;5064541;28;20123;-65
2022/01/18 14:24:13;;;;;;;16.55;6.43;;;7.30;99.90;;;;;;5052708;28;20049;-65
2022/01/18 14:27:01;;;;;;;19.02;7.18;;;7.30;99.90;;;;;;5049064;28;20045;-64